sensor_id;sensor_type;location;lat;lon;timestamp;pressure;altitude;pressure_sealevel;temperature;humidity
23616;BME280;11985;49.404;7.734;2022-12-07T00:03:38;97395.06;;;1.55;100.00
23616;BME280;11985;49.404;7.734;2022-12-07T00:08:41;97386.75;;;1.51;100.00
23616;BME280;11985;49.404;7.734;2022-12-07T00:13:44;97393.88;;;1.49;100.00
23616;BME280;11985;49.404;7.734;2022-12-07T00:18:46;97396.59;;;1.48;100.00
23616;BME280;11985;49.404;7.734;2022-12-07T00:23:50;97391.41;;;1.48;100.00
23616;BME280;11985;49.404;7.734;2022-12-07T00:28:54;97375.03;;;1.47;100.00
23616;BME280;11985;49.404;7.734;2022-12-07T00:33:57;97382.66;;;1.49;100.00
23616;BME280;11985;49.404;7.734;2022-12-07T00:39:00;97382.44;;;1.42;100.00
23616;BME280;11985;49.404;7.734;2022-12-07T00:44:02;97378.50;;;1.38;100.00
23616;BME280;11985;49.404;7.734;2022-12-07T00:49:04;97386.72;;;1.34;100.00
23616;BME280;11985;49.404;7.734;2022-12-07T00:54:07;97393.59;;;1.25;100.00
23616;BME280;11985;49.404;7.734;2022-12-07T00:59:12;97389.41;;;1.14;100.00
23616;BME280;11985;49.404;7.734;2022-12-07T01:04:15;97382.59;;;1.13;100.00
23616;BME280;11985;49.404;7.734;2022-12-07T01:09:18;97370.50;;;1.22;100.00
23616;BME280;11985;49.404;7.734;2022-12-07T01:14:19;97377.63;;;1.20;100.00
23616;BME280;11985;49.404;7.734;2022-12-07T01:19:21;97374.38;;;1.18;100.00
23616;BME280;11985;49.404;7.734;2022-12-07T01:24:24;97369.78;;;1.12;100.00
23616;BME280;11985;49.404;7.734;2022-12-07T01:29:25;97369.97;;;1.00;100.00
23616;BME280;11985;49.404;7.734;2022-12-07T01:34:27;97365.31;;;0.94;100.00
23616;BME280;11985;49.404;7.734;2022-12-07T01:39:30;97369.75;;;0.84;100.00
23616;BME280;11985;49.404;7.734;2022-12-07T01:44:31;97376.72;;;0.84;100.00
23616;BME280;11985;49.404;7.734;2022-12-07T01:49:36;97378.63;;;0.82;100.00
23616;BME280;11985;49.404;7.734;2022-12-07T01:54:40;97373.97;;;0.85;100.00
23616;BME280;11985;49.404;7.734;2022-12-07T01:59:45;97375.03;;;0.92;100.00
23616;BME280;11985;49.404;7.734;2022-12-07T02:04:47;97379.25;;;0.93;100.00
23616;BME280;11985;49.404;7.734;2022-12-07T02:09:50;97369.44;;;0.87;100.00
23616;BME280;11985;49.404;7.734;2022-12-07T02:14:52;97363.88;;;0.82;100.00
23616;BME280;11985;49.404;7.734;2022-12-07T02:20:21;97358.97;;;0.79;100.00
23616;BME280;11985;49.404;7.734;2022-12-07T02:25:38;97355.44;;;0.80;100.00
23616;BME280;11985;49.404;7.734;2022-12-07T02:30:47;97347.78;;;0.78;100.00
23616;BME280;11985;49.404;7.734;2022-12-07T02:35:55;97347.78;;;0.78;100.00
23616;BME280;11985;49.404;7.734;2022-12-07T02:41:02;97347.09;;;0.76;100.00
23616;BME280;11985;49.404;7.734;2022-12-07T02:46:11;97344.94;;;0.72;100.00
23616;BME280;11985;49.404;7.734;2022-12-07T02:51:17;97349.31;;;0.71;100.00
23616;BME280;11985;49.404;7.734;2022-12-07T02:56:27;97340.44;;;0.74;100.00
23616;BME280;11985;49.404;7.734;2022-12-07T03:01:38;97332.75;;;0.82;100.00
23616;BME280;11985;49.404;7.734;2022-12-07T03:06:49;97340.69;;;0.81;100.00
23616;BME280;11985;49.404;7.734;2022-12-07T03:12:00;97338.25;;;0.79;100.00
23616;BME280;11985;49.404;7.734;2022-12-07T03:17:07;97335.09;;;0.75;100.00
23616;BME280;11985;49.404;7.734;2022-12-07T03:22:13;97330.06;;;0.74;100.00
23616;BME280;11985;49.404;7.734;2022-12-07T03:27:20;97323.38;;;0.71;100.00
23616;BME280;11985;49.404;7.734;2022-12-07T03:32:27;97324.19;;;0.72;100.00
23616;BME280;11985;49.404;7.734;2022-12-07T03:37:34;97313.16;;;0.70;100.00
23616;BME280;11985;49.404;7.734;2022-12-07T03:42:38;97315.38;;;0.65;100.00
23616;BME280;11985;49.404;7.734;2022-12-07T03:47:46;97329.28;;;0.64;100.00
23616;BME280;11985;49.404;7.734;2022-12-07T03:52:53;97329.44;;;0.62;100.00
23616;BME280;11985;49.404;7.734;2022-12-07T03:58:01;97322.63;;;0.61;100.00
23616;BME280;11985;49.404;7.734;2022-12-07T04:03:05;97318.09;;;0.63;100.00
23616;BME280;11985;49.404;7.734;2022-12-07T04:08:07;97333.09;;;0.69;100.00
23616;BME280;11985;49.404;7.734;2022-12-07T04:13:08;97325.47;;;0.68;100.00
23616;BME280;11985;49.404;7.734;2022-12-07T04:18:11;97331.88;;;0.64;100.00
23616;BME280;11985;49.404;7.734;2022-12-07T04:23:13;97323.84;;;0.57;100.00
23616;BME280;11985;49.404;7.734;2022-12-07T04:28:14;97323.84;;;0.57;100.00
23616;BME280;11985;49.404;7.734;2022-12-07T04:33:17;97313.50;;;0.57;100.00
23616;BME280;11985;49.404;7.734;2022-12-07T04:38:19;97318.69;;;0.57;100.00
23616;BME280;11985;49.404;7.734;2022-12-07T04:43:20;97311.41;;;0.61;100.00
23616;BME280;11985;49.404;7.734;2022-12-07T04:48:23;97313.19;;;0.60;100.00
23616;BME280;11985;49.404;7.734;2022-12-07T04:53:25;97313.47;;;0.67;100.00
23616;BME280;11985;49.404;7.734;2022-12-07T04:58:26;97310.34;;;0.91;100.00
23616;BME280;11985;49.404;7.734;2022-12-07T05:03:30;97315.56;;;1.09;100.00
23616;BME280;11985;49.404;7.734;2022-12-07T05:08:34;97308.84;;;1.16;100.00
23616;BME280;11985;49.404;7.734;2022-12-07T05:13:36;97311.91;;;1.29;100.00
23616;BME280;11985;49.404;7.734;2022-12-07T05:18:38;97308.53;;;1.46;100.00
23616;BME280;11985;49.404;7.734;2022-12-07T05:23:40;97310.22;;;1.55;100.00
23616;BME280;11985;49.404;7.734;2022-12-07T05:28:41;97317.06;;;1.56;100.00
23616;BME280;11985;49.404;7.734;2022-12-07T05:33:45;97324.63;;;1.68;100.00
23616;BME280;11985;49.404;7.734;2022-12-07T05:38:46;97311.41;;;1.79;100.00
23616;BME280;11985;49.404;7.734;2022-12-07T05:43:48;97305.69;;;1.93;100.00
23616;BME280;11985;49.404;7.734;2022-12-07T05:48:51;97305.44;;;2.04;100.00
23616;BME280;11985;49.404;7.734;2022-12-07T05:53:52;97306.34;;;1.95;100.00
23616;BME280;11985;49.404;7.734;2022-12-07T05:58:54;97307.47;;;1.93;100.00
23616;BME280;11985;49.404;7.734;2022-12-07T06:04:15;97300.94;;;1.89;100.00
23616;BME280;11985;49.404;7.734;2022-12-07T06:09:16;97299.75;;;1.83;100.00
23616;BME280;11985;49.404;7.734;2022-12-07T06:14:18;97299.81;;;1.55;100.00
23616;BME280;11985;49.404;7.734;2022-12-07T06:19:21;97303.91;;;1.40;100.00
23616;BME280;11985;49.404;7.734;2022-12-07T06:24:23;97307.28;;;1.50;100.00
23616;BME280;11985;49.404;7.734;2022-12-07T06:29:25;97303.69;;;1.51;100.00
23616;BME280;11985;49.404;7.734;2022-12-07T06:34:28;97314.09;;;1.51;100.00
23616;BME280;11985;49.404;7.734;2022-12-07T06:39:30;97313.78;;;1.54;100.00
23616;BME280;11985;49.404;7.734;2022-12-07T06:44:32;97312.31;;;1.70;100.00
23616;BME280;11985;49.404;7.734;2022-12-07T06:49:35;97306.22;;;1.79;100.00
23616;BME280;11985;49.404;7.734;2022-12-07T06:54:38;97312.03;;;1.73;100.00
23616;BME280;11985;49.404;7.734;2022-12-07T06:59:39;97302.56;;;1.72;100.00
23616;BME280;11985;49.404;7.734;2022-12-07T07:04:42;97319.66;;;1.74;100.00
23616;BME280;11985;49.404;7.734;2022-12-07T07:09:44;97323.72;;;1.77;100.00
23616;BME280;11985;49.404;7.734;2022-12-07T07:14:46;97328.31;;;1.83;100.00
23616;BME280;11985;49.404;7.734;2022-12-07T07:19:49;97317.94;;;1.83;100.00
23616;BME280;11985;49.404;7.734;2022-12-07T07:24:50;97321.22;;;1.85;100.00
23616;BME280;11985;49.404;7.734;2022-12-07T07:29:52;97318.97;;;1.90;100.00
23616;BME280;11985;49.404;7.734;2022-12-07T07:34:55;97325.25;;;2.05;100.00
23616;BME280;11985;49.404;7.734;2022-12-07T07:39:56;97326.47;;;2.11;100.00
23616;BME280;11985;49.404;7.734;2022-12-07T07:44:58;97329.56;;;2.15;100.00
23616;BME280;11985;49.404;7.734;2022-12-07T07:50:01;97332.09;;;2.06;100.00
23616;BME280;11985;49.404;7.734;2022-12-07T07:55:04;97330.03;;;1.92;100.00
23616;BME280;11985;49.404;7.734;2022-12-07T08:00:08;97329.38;;;1.90;100.00
23616;BME280;11985;49.404;7.734;2022-12-07T08:05:11;97338.13;;;1.89;100.00
23616;BME280;11985;49.404;7.734;2022-12-07T08:10:13;97343.22;;;1.81;100.00
23616;BME280;11985;49.404;7.734;2022-12-07T08:15:15;97351.56;;;1.67;100.00
23616;BME280;11985;49.404;7.734;2022-12-07T08:20:18;97353.91;;;1.60;100.00
23616;BME280;11985;49.404;7.734;2022-12-07T08:25:19;97359.78;;;1.62;100.00
23616;BME280;11985;49.404;7.734;2022-12-07T08:30:22;97356.81;;;1.75;100.00
23616;BME280;11985;49.404;7.734;2022-12-07T08:35:25;97362.22;;;1.81;100.00
23616;BME280;11985;49.404;7.734;2022-12-07T08:40:27;97357.84;;;1.82;100.00
23616;BME280;11985;49.404;7.734;2022-12-07T08:45:28;97369.13;;;1.73;100.00
23616;BME280;11985;49.404;7.734;2022-12-07T08:50:34;97365.84;;;1.71;100.00
23616;BME280;11985;49.404;7.734;2022-12-07T08:55:37;97348.06;;;1.76;100.00
23616;BME280;11985;49.404;7.734;2022-12-07T09:00:38;97351.03;;;1.81;100.00
23616;BME280;11985;49.404;7.734;2022-12-07T09:05:42;97352.66;;;1.82;100.00
23616;BME280;11985;49.404;7.734;2022-12-07T09:10:43;97359.84;;;1.88;100.00
23616;BME280;11985;49.404;7.734;2022-12-07T09:15:45;97354.28;;;1.83;100.00
23616;BME280;11985;49.404;7.734;2022-12-07T09:20:48;97349.41;;;1.80;100.00
23616;BME280;11985;49.404;7.734;2022-12-07T09:25:50;97355.34;;;1.90;100.00
23616;BME280;11985;49.404;7.734;2022-12-07T09:30:51;97343.66;;;2.12;100.00
23616;BME280;11985;49.404;7.734;2022-12-07T09:35:54;97351.50;;;2.20;100.00
23616;BME280;11985;49.404;7.734;2022-12-07T09:40:56;97350.03;;;2.18;100.00
23616;BME280;11985;49.404;7.734;2022-12-07T09:45:58;97351.31;;;2.14;100.00
23616;BME280;11985;49.404;7.734;2022-12-07T09:51:01;97343.78;;;2.28;100.00
23616;BME280;11985;49.404;7.734;2022-12-07T09:56:04;97342.13;;;2.45;100.00
23616;BME280;11985;49.404;7.734;2022-12-07T10:01:12;97337.97;;;2.60;100.00
23616;BME280;11985;49.404;7.734;2022-12-07T10:06:15;97333.66;;;2.69;100.00
23616;BME280;11985;49.404;7.734;2022-12-07T10:11:18;97338.41;;;2.82;100.00
23616;BME280;11985;49.404;7.734;2022-12-07T10:16:41;97336.50;;;2.84;100.00
23616;BME280;11985;49.404;7.734;2022-12-07T10:21:59;97333.22;;;2.82;100.00
23616;BME280;11985;49.404;7.734;2022-12-07T10:27:01;97334.25;;;2.97;100.00
23616;BME280;11985;49.404;7.734;2022-12-07T10:32:04;97324.38;;;3.01;100.00
23616;BME280;11985;49.404;7.734;2022-12-07T10:37:16;97317.34;;;2.93;100.00
23616;BME280;11985;49.404;7.734;2022-12-07T10:42:20;97324.50;;;2.99;100.00
23616;BME280;11985;49.404;7.734;2022-12-07T10:47:31;97306.34;;;3.15;100.00
23616;BME280;11985;49.404;7.734;2022-12-07T10:52:48;97312.25;;;3.26;100.00
23616;BME280;11985;49.404;7.734;2022-12-07T10:58:06;97307.53;;;3.29;100.00
23616;BME280;11985;49.404;7.734;2022-12-07T11:03:38;97297.59;;;3.25;100.00
23616;BME280;11985;49.404;7.734;2022-12-07T11:08:55;97295.63;;;3.18;100.00
23616;BME280;11985;49.404;7.734;2022-12-07T11:14:03;97288.03;;;3.33;100.00
23616;BME280;11985;49.404;7.734;2022-12-07T11:19:17;97278.41;;;3.26;100.00
23616;BME280;11985;49.404;7.734;2022-12-07T11:24:28;97279.25;;;3.34;100.00
23616;BME280;11985;49.404;7.734;2022-12-07T11:35:05;97269.03;;;3.74;100.00
23616;BME280;11985;49.404;7.734;2022-12-07T11:40:18;97264.81;;;3.73;100.00
23616;BME280;11985;49.404;7.734;2022-12-07T11:45:25;97256.03;;;3.74;100.00
23616;BME280;11985;49.404;7.734;2022-12-07T11:50:33;97260.09;;;3.84;100.00
23616;BME280;11985;49.404;7.734;2022-12-07T11:55:42;97254.38;;;3.64;100.00
23616;BME280;11985;49.404;7.734;2022-12-07T12:00:45;97262.16;;;3.24;100.00
23616;BME280;11985;49.404;7.734;2022-12-07T12:05:46;97248.97;;;3.25;100.00
23616;BME280;11985;49.404;7.734;2022-12-07T12:10:56;97238.41;;;3.35;100.00
23616;BME280;11985;49.404;7.734;2022-12-07T12:16:12;97238.72;;;3.32;100.00
23616;BME280;11985;49.404;7.734;2022-12-07T12:21:19;97233.56;;;3.56;100.00
23616;BME280;11985;49.404;7.734;2022-12-07T12:26:26;97232.88;;;3.70;100.00
23616;BME280;11985;49.404;7.734;2022-12-07T12:31:36;97233.69;;;3.87;100.00
23616;BME280;11985;49.404;7.734;2022-12-07T12:36:46;97235.50;;;3.62;100.00
23616;BME280;11985;49.404;7.734;2022-12-07T12:41:55;97225.91;;;3.63;100.00
23616;BME280;11985;49.404;7.734;2022-12-07T12:52:53;97209.78;;;3.59;100.00
23616;BME280;11985;49.404;7.734;2022-12-07T12:58:32;97212.38;;;3.67;100.00
23616;BME280;11985;49.404;7.734;2022-12-07T13:03:34;97213.50;;;3.81;100.00
23616;BME280;11985;49.404;7.734;2022-12-07T13:08:40;97211.06;;;3.71;100.00
23616;BME280;11985;49.404;7.734;2022-12-07T13:13:44;97204.09;;;3.72;100.00
23616;BME280;11985;49.404;7.734;2022-12-07T13:18:46;97187.59;;;3.88;100.00
23616;BME280;11985;49.404;7.734;2022-12-07T13:23:54;97190.22;;;3.88;100.00
23616;BME280;11985;49.404;7.734;2022-12-07T13:29:09;97182.72;;;3.77;100.00
23616;BME280;11985;49.404;7.734;2022-12-07T13:34:28;97185.19;;;3.86;100.00
23616;BME280;11985;49.404;7.734;2022-12-07T13:39:33;97180.78;;;3.87;100.00
23616;BME280;11985;49.404;7.734;2022-12-07T13:44:40;97177.53;;;3.77;100.00
23616;BME280;11985;49.404;7.734;2022-12-07T13:49:47;97170.88;;;3.74;100.00
23616;BME280;11985;49.404;7.734;2022-12-07T13:54:56;97172.00;;;3.55;100.00
23616;BME280;11985;49.404;7.734;2022-12-07T13:59:59;97173.00;;;3.46;100.00
23616;BME280;11985;49.404;7.734;2022-12-07T14:05:09;97173.97;;;3.53;100.00
23616;BME280;11985;49.404;7.734;2022-12-07T14:10:23;97170.06;;;3.57;100.00
23616;BME280;11985;49.404;7.734;2022-12-07T14:15:28;97169.38;;;3.71;100.00
23616;BME280;11985;49.404;7.734;2022-12-07T14:20:33;97166.97;;;3.78;100.00
23616;BME280;11985;49.404;7.734;2022-12-07T14:25:44;97168.13;;;3.51;100.00
23616;BME280;11985;49.404;7.734;2022-12-07T14:30:47;97169.56;;;3.21;100.00
23616;BME280;11985;49.404;7.734;2022-12-07T14:35:49;97163.69;;;3.11;100.00
23616;BME280;11985;49.404;7.734;2022-12-07T14:40:55;97170.66;;;2.94;100.00
23616;BME280;11985;49.404;7.734;2022-12-07T14:46:19;97169.72;;;2.95;100.00
23616;BME280;11985;49.404;7.734;2022-12-07T14:51:21;97170.34;;;2.89;100.00
23616;BME280;11985;49.404;7.734;2022-12-07T14:56:23;97174.72;;;2.88;100.00
23616;BME280;11985;49.404;7.734;2022-12-07T15:01:26;97163.19;;;2.91;100.00
23616;BME280;11985;49.404;7.734;2022-12-07T15:06:27;97155.38;;;2.91;100.00
23616;BME280;11985;49.404;7.734;2022-12-07T15:11:29;97164.81;;;2.92;100.00
23616;BME280;11985;49.404;7.734;2022-12-07T15:16:32;97158.66;;;3.01;100.00
23616;BME280;11985;49.404;7.734;2022-12-07T15:21:33;97168.41;;;2.91;100.00
23616;BME280;11985;49.404;7.734;2022-12-07T15:26:35;97170.50;;;2.79;100.00
23616;BME280;11985;49.404;7.734;2022-12-07T15:31:38;97158.59;;;2.69;100.00
23616;BME280;11985;49.404;7.734;2022-12-07T15:36:40;97166.06;;;2.72;100.00
23616;BME280;11985;49.404;7.734;2022-12-07T15:41:41;97162.47;;;2.64;100.00
23616;BME280;11985;49.404;7.734;2022-12-07T15:46:44;97164.91;;;2.58;100.00
23616;BME280;11985;49.404;7.734;2022-12-07T15:51:46;97151.53;;;2.45;100.00
23616;BME280;11985;49.404;7.734;2022-12-07T15:56:48;97147.13;;;2.37;100.00
23616;BME280;11985;49.404;7.734;2022-12-07T16:01:51;97138.97;;;2.24;100.00
23616;BME280;11985;49.404;7.734;2022-12-07T16:06:53;97131.44;;;2.13;100.00
23616;BME280;11985;49.404;7.734;2022-12-07T16:11:54;97138.53;;;2.02;100.00
23616;BME280;11985;49.404;7.734;2022-12-07T16:16:57;97145.41;;;2.11;100.00
23616;BME280;11985;49.404;7.734;2022-12-07T16:21:59;97128.50;;;2.16;100.00
23616;BME280;11985;49.404;7.734;2022-12-07T16:27:00;97119.09;;;2.15;100.00
23616;BME280;11985;49.404;7.734;2022-12-07T16:32:04;97123.59;;;2.04;100.00
23616;BME280;11985;49.404;7.734;2022-12-07T16:37:05;97114.09;;;1.87;100.00
23616;BME280;11985;49.404;7.734;2022-12-07T16:42:07;97116.94;;;1.68;100.00
23616;BME280;11985;49.404;7.734;2022-12-07T16:47:10;97115.78;;;1.44;100.00
23616;BME280;11985;49.404;7.734;2022-12-07T16:52:12;97110.19;;;1.31;100.00
23616;BME280;11985;49.404;7.734;2022-12-07T16:57:13;97119.22;;;1.27;100.00
23616;BME280;11985;49.404;7.734;2022-12-07T17:02:16;97120.03;;;1.27;100.00
23616;BME280;11985;49.404;7.734;2022-12-07T17:07:18;97110.50;;;1.28;100.00
23616;BME280;11985;49.404;7.734;2022-12-07T17:12:19;97105.31;;;1.28;100.00
23616;BME280;11985;49.404;7.734;2022-12-07T17:17:22;97101.44;;;1.32;100.00
23616;BME280;11985;49.404;7.734;2022-12-07T17:22:24;97098.75;;;1.42;100.00
23616;BME280;11985;49.404;7.734;2022-12-07T17:27:25;97098.47;;;1.45;100.00
23616;BME280;11985;49.404;7.734;2022-12-07T17:32:29;97097.34;;;1.55;100.00
23616;BME280;11985;49.404;7.734;2022-12-07T17:37:31;97092.03;;;1.57;100.00
23616;BME280;11985;49.404;7.734;2022-12-07T17:42:33;97086.97;;;1.55;100.00
23616;BME280;11985;49.404;7.734;2022-12-07T17:47:39;97093.56;;;1.42;100.00
23616;BME280;11985;49.404;7.734;2022-12-07T17:52:40;97083.94;;;1.34;100.00
23616;BME280;11985;49.404;7.734;2022-12-07T17:57:59;97088.97;;;1.36;100.00
23616;BME280;11985;49.404;7.734;2022-12-07T18:03:03;97078.44;;;1.37;100.00
23616;BME280;11985;49.404;7.734;2022-12-07T18:08:05;97074.50;;;1.33;100.00
23616;BME280;11985;49.404;7.734;2022-12-07T18:13:07;97082.63;;;1.30;100.00
23616;BME280;11985;49.404;7.734;2022-12-07T18:18:28;97072.88;;;1.32;100.00
23616;BME280;11985;49.404;7.734;2022-12-07T18:23:29;97068.06;;;1.37;100.00
23616;BME280;11985;49.404;7.734;2022-12-07T18:28:33;97061.75;;;1.40;100.00
23616;BME280;11985;49.404;7.734;2022-12-07T18:33:36;97058.69;;;1.44;100.00
23616;BME280;11985;49.404;7.734;2022-12-07T18:38:37;97065.22;;;1.48;100.00
23616;BME280;11985;49.404;7.734;2022-12-07T18:43:39;97067.06;;;1.30;100.00
23616;BME280;11985;49.404;7.734;2022-12-07T18:48:43;97060.25;;;1.29;100.00
23616;BME280;11985;49.404;7.734;2022-12-07T18:53:45;97054.53;;;1.25;100.00
23616;BME280;11985;49.404;7.734;2022-12-07T18:58:48;97052.38;;;1.21;100.00
23616;BME280;11985;49.404;7.734;2022-12-07T19:04:09;97054.88;;;1.04;100.00
23616;BME280;11985;49.404;7.734;2022-12-07T19:09:11;97048.81;;;0.96;100.00
23616;BME280;11985;49.404;7.734;2022-12-07T19:14:14;97048.38;;;1.00;100.00
23616;BME280;11985;49.404;7.734;2022-12-07T19:19:19;97043.03;;;1.02;100.00
23616;BME280;11985;49.404;7.734;2022-12-07T19:24:21;97039.91;;;0.98;100.00
23616;BME280;11985;49.404;7.734;2022-12-07T19:29:23;97032.44;;;0.95;100.00
23616;BME280;11985;49.404;7.734;2022-12-07T19:34:28;97045.34;;;0.87;100.00
23616;BME280;11985;49.404;7.734;2022-12-07T19:39:30;97035.88;;;0.78;100.00
23616;BME280;11985;49.404;7.734;2022-12-07T19:44:32;97048.16;;;0.76;100.00
23616;BME280;11985;49.404;7.734;2022-12-07T19:49:35;97037.44;;;0.71;100.00
23616;BME280;11985;49.404;7.734;2022-12-07T19:54:37;97043.56;;;0.70;100.00
23616;BME280;11985;49.404;7.734;2022-12-07T19:59:39;97027.50;;;0.66;100.00
23616;BME280;11985;49.404;7.734;2022-12-07T20:04:42;97033.00;;;0.63;100.00
23616;BME280;11985;49.404;7.734;2022-12-07T20:09:43;97024.41;;;0.63;100.00
23616;BME280;11985;49.404;7.734;2022-12-07T20:14:45;97027.75;;;0.73;100.00
23616;BME280;11985;49.404;7.734;2022-12-07T20:19:48;97027.75;;;0.73;100.00
23616;BME280;11985;49.404;7.734;2022-12-07T20:24:49;97025.50;;;0.78;100.00
23616;BME280;11985;49.404;7.734;2022-12-07T20:29:51;97029.84;;;0.77;100.00
23616;BME280;11985;49.404;7.734;2022-12-07T20:34:54;97016.78;;;0.79;100.00
23616;BME280;11985;49.404;7.734;2022-12-07T20:39:55;97013.13;;;0.72;100.00
23616;BME280;11985;49.404;7.734;2022-12-07T20:44:57;97014.69;;;0.65;100.00
23616;BME280;11985;49.404;7.734;2022-12-07T20:50:00;97014.19;;;0.61;100.00
23616;BME280;11985;49.404;7.734;2022-12-07T20:55:02;97018.47;;;0.70;100.00
23616;BME280;11985;49.404;7.734;2022-12-07T21:00:05;97012.88;;;0.83;100.00
23616;BME280;11985;49.404;7.734;2022-12-07T21:05:09;96995.63;;;0.92;100.00
23616;BME280;11985;49.404;7.734;2022-12-07T21:10:11;96988.66;;;0.92;100.00
23616;BME280;11985;49.404;7.734;2022-12-07T21:15:12;96980.16;;;0.82;100.00
23616;BME280;11985;49.404;7.734;2022-12-07T21:20:15;96977.88;;;0.79;100.00
23616;BME280;11985;49.404;7.734;2022-12-07T21:25:17;96981.50;;;0.86;100.00
23616;BME280;11985;49.404;7.734;2022-12-07T21:30:19;96972.38;;;0.82;100.00
23616;BME280;11985;49.404;7.734;2022-12-07T21:35:22;96975.78;;;0.83;100.00
23616;BME280;11985;49.404;7.734;2022-12-07T21:40:23;96968.31;;;0.79;100.00
23616;BME280;11985;49.404;7.734;2022-12-07T21:45:25;96966.84;;;0.77;100.00
23616;BME280;11985;49.404;7.734;2022-12-07T21:50:28;96968.25;;;0.71;100.00
23616;BME280;11985;49.404;7.734;2022-12-07T21:55:29;96949.16;;;0.72;100.00
23616;BME280;11985;49.404;7.734;2022-12-07T22:00:31;96954.03;;;0.75;100.00
23616;BME280;11985;49.404;7.734;2022-12-07T22:05:35;96962.06;;;0.90;100.00
23616;BME280;11985;49.404;7.734;2022-12-07T22:10:36;96945.84;;;0.88;100.00
23616;BME280;11985;49.404;7.734;2022-12-07T22:15:39;96949.00;;;0.74;100.00
23616;BME280;11985;49.404;7.734;2022-12-07T22:20:42;96946.41;;;0.74;100.00
23616;BME280;11985;49.404;7.734;2022-12-07T22:25:44;96949.66;;;0.76;100.00
23616;BME280;11985;49.404;7.734;2022-12-07T22:30:45;96950.34;;;0.78;100.00
23616;BME280;11985;49.404;7.734;2022-12-07T22:35:52;96952.41;;;0.74;100.00
23616;BME280;11985;49.404;7.734;2022-12-07T22:40:54;96939.28;;;0.76;100.00
23616;BME280;11985;49.404;7.734;2022-12-07T22:45:56;96936.41;;;0.79;100.00
23616;BME280;11985;49.404;7.734;2022-12-07T22:50:59;96928.91;;;0.76;100.00
23616;BME280;11985;49.404;7.734;2022-12-07T22:56:01;96926.50;;;0.74;100.00
23616;BME280;11985;49.404;7.734;2022-12-07T23:01:05;96919.72;;;0.82;100.00
23616;BME280;11985;49.404;7.734;2022-12-07T23:06:11;96915.41;;;0.90;100.00
23616;BME280;11985;49.404;7.734;2022-12-07T23:11:16;96916.84;;;0.85;100.00
23616;BME280;11985;49.404;7.734;2022-12-07T23:16:32;96908.69;;;0.79;100.00
23616;BME280;11985;49.404;7.734;2022-12-07T23:21:35;96908.53;;;0.81;100.00
23616;BME280;11985;49.404;7.734;2022-12-07T23:26:36;96895.41;;;0.83;100.00
23616;BME280;11985;49.404;7.734;2022-12-07T23:31:38;96894.94;;;0.79;100.00
23616;BME280;11985;49.404;7.734;2022-12-07T23:36:41;96887.81;;;0.81;100.00
23616;BME280;11985;49.404;7.734;2022-12-07T23:41:43;96884.84;;;0.76;100.00
23616;BME280;11985;49.404;7.734;2022-12-07T23:46:44;96882.25;;;0.76;100.00
23616;BME280;11985;49.404;7.734;2022-12-07T23:51:47;96882.41;;;0.74;100.00
23616;BME280;11985;49.404;7.734;2022-12-07T23:56:49;96882.59;;;0.73;100.00
